<?xml version="1.0" encoding="UTF-8" standalone="no" ?>
<gpx xmlns="http://www.topografix.com/GPX/1/1" xmlns:xsi="http://www.w3.org/2001/XMLSchema-instance" xsi:schemaLocation="http://www.topografix.com/GPX/1/1 http://www.topografix.com/GPX/1/1/gpx.xsd" version="1.1" creator="VisuGPX - https://www.visugpx.com">
  <metadata>
    <name>3 batailles: Grande Boucle 1</name>
  </metadata>
  <trk>
    <name><![CDATA[14114115-3 batailles Grande Boucle 1]]></name>
    <extensions>
      <line xmlns="http://www.topografix.com/GPX/gpx_style/0/2">
        <color>0000FF</color>
        <width>4</width>
      </line>
    </extensions>
    <trkseg>
      <trkpt lat="46.70824" lon="0.53101">
        <ele>120</ele>
        <time>2022-07-11T07:19:34Z</time>
      </trkpt>
      <trkpt lat="46.70741" lon="0.53088">
        <ele>121</ele>
        <time>2022-07-11T07:20:41Z</time>
      </trkpt>
      <trkpt lat="46.70646" lon="0.53036">
        <ele>123</ele>
        <time>2022-07-11T07:22:02Z</time>
      </trkpt>
      <trkpt lat="46.70576" lon="0.53058">
        <ele>124</ele>
        <time>2022-07-11T07:22:59Z</time>
      </trkpt>
      <trkpt lat="46.70515" lon="0.53121">
        <ele>125</ele>
        <time>2022-07-11T07:23:59Z</time>
      </trkpt>
      <trkpt lat="46.70453" lon="0.53249">
        <ele>124</ele>
        <time>2022-07-11T07:25:25Z</time>
      </trkpt>
      <trkpt lat="46.70452" lon="0.53329">
        <ele>120</ele>
        <time>2022-07-11T07:26:09Z</time>
      </trkpt>
      <trkpt lat="46.70151" lon="0.53595">
        <ele>117</ele>
        <time>2022-07-11T07:30:51Z</time>
      </trkpt>
      <trkpt lat="46.70127" lon="0.53643">
        <ele>116</ele>
        <time>2022-07-11T07:31:24Z</time>
      </trkpt>
      <trkpt lat="46.69823" lon="0.53894">
        <ele>120</ele>
        <time>2022-07-11T07:36:03Z</time>
      </trkpt>
      <trkpt lat="46.69776" lon="0.53901">
        <ele>122</ele>
        <time>2022-07-11T07:36:41Z</time>
      </trkpt>
      <trkpt lat="46.69715" lon="0.53888">
        <ele>125</ele>
        <time>2022-07-11T07:37:31Z</time>
      </trkpt>
      <trkpt lat="46.69685" lon="0.53806">
        <ele>127</ele>
        <time>2022-07-11T07:38:22Z</time>
      </trkpt>
      <trkpt lat="46.69559" lon="0.53783">
        <ele>128</ele>
        <time>2022-07-11T07:40:03Z</time>
      </trkpt>
      <trkpt lat="46.69532" lon="0.53809">
        <ele>127</ele>
        <time>2022-07-11T07:40:29Z</time>
      </trkpt>
      <trkpt lat="46.69566" lon="0.53991">
        <ele>124</ele>
        <time>2022-07-11T07:42:13Z</time>
      </trkpt>
      <trkpt lat="46.69509" lon="0.54105">
        <ele>117</ele>
        <time>2022-07-11T07:43:30Z</time>
      </trkpt>
      <trkpt lat="46.69415" lon="0.54155">
        <ele>113</ele>
        <time>2022-07-11T07:44:50Z</time>
      </trkpt>
      <trkpt lat="46.69324" lon="0.54203">
        <ele>107</ele>
        <time>2022-07-11T07:46:08Z</time>
      </trkpt>
      <trkpt lat="46.69288" lon="0.54103">
        <ele>108</ele>
        <time>2022-07-11T07:47:10Z</time>
      </trkpt>
      <trkpt lat="46.69288" lon="0.5403">
        <ele>109</ele>
        <time>2022-07-11T07:47:50Z</time>
      </trkpt>
      <trkpt lat="46.69247" lon="0.53946">
        <ele>107</ele>
        <time>2022-07-11T07:48:47Z</time>
      </trkpt>
      <trkpt lat="46.6928" lon="0.53649">
        <ele>110</ele>
        <time>2022-07-11T07:51:32Z</time>
      </trkpt>
      <trkpt lat="46.6919" lon="0.53604">
        <ele>101</ele>
        <time>2022-07-11T07:52:48Z</time>
      </trkpt>
      <trkpt lat="46.69184" lon="0.53428">
        <ele>92</ele>
        <time>2022-07-11T07:54:25Z</time>
      </trkpt>
      <trkpt lat="46.69253" lon="0.53173">
        <ele>90</ele>
        <time>2022-07-11T07:56:55Z</time>
      </trkpt>
      <trkpt lat="46.69315" lon="0.53043">
        <ele>90</ele>
        <time>2022-07-11T07:58:22Z</time>
      </trkpt>
      <trkpt lat="46.69267" lon="0.52945">
        <ele>92</ele>
        <time>2022-07-11T07:59:28Z</time>
      </trkpt>
      <trkpt lat="46.69233" lon="0.52906">
        <ele>96</ele>
        <time>2022-07-11T08:00:03Z</time>
      </trkpt>
      <trkpt lat="46.69548" lon="0.5219">
        <ele>111</ele>
        <time>2022-07-11T08:07:50Z</time>
      </trkpt>
      <trkpt lat="46.69814" lon="0.51592">
        <ele>126</ele>
        <time>2022-07-11T08:14:22Z</time>
      </trkpt>
      <trkpt lat="46.69559" lon="0.51343">
        <ele>132</ele>
        <time>2022-07-11T08:18:27Z</time>
      </trkpt>
      <trkpt lat="46.69386" lon="0.51231">
        <ele>131</ele>
        <time>2022-07-11T08:20:59Z</time>
      </trkpt>
      <trkpt lat="46.6922" lon="0.51056">
        <ele>130.1</ele>
        <time>2022-07-11T08:23:44Z</time>
      </trkpt>
      <trkpt lat="46.69049" lon="0.50902">
        <ele>133.1</ele>
        <time>2022-07-11T08:25:47Z</time>
      </trkpt>
      <trkpt lat="46.69162" lon="0.50633">
        <ele>134</ele>
        <time>2022-07-11T08:28:59Z</time>
      </trkpt>
      <trkpt lat="46.69249" lon="0.50416">
        <ele>138</ele>
        <time>2022-07-11T08:31:17Z</time>
      </trkpt>
      <trkpt lat="46.69533" lon="0.49829">
        <ele>142</ele>
        <time>2022-07-11T08:37:52Z</time>
      </trkpt>
      <trkpt lat="46.6931" lon="0.49547">
        <ele>145</ele>
        <time>2022-07-11T08:41:48Z</time>
      </trkpt>
      <trkpt lat="46.69176" lon="0.49359">
        <ele>147</ele>
        <time>2022-07-11T08:44:17Z</time>
      </trkpt>
      <trkpt lat="46.69255" lon="0.49176">
        <ele>142</ele>
        <time>2022-07-11T08:46:16Z</time>
      </trkpt>
      <trkpt lat="46.69177" lon="0.49138">
        <ele>146</ele>
        <time>2022-07-11T08:47:22Z</time>
      </trkpt>
      <trkpt lat="46.69293" lon="0.48776">
        <ele>146</ele>
        <time>2022-07-11T08:51:01Z</time>
      </trkpt>
      <trkpt lat="46.69499" lon="0.48955">
        <ele>144</ele>
        <time>2022-07-11T08:54:13Z</time>
      </trkpt>
      <trkpt lat="46.69473" lon="0.48694">
        <ele>140</ele>
        <time>2022-07-11T08:56:38Z</time>
      </trkpt>
      <trkpt lat="46.69428" lon="0.48454">
        <ele>133</ele>
        <time>2022-07-11T08:58:55Z</time>
      </trkpt>
      <trkpt lat="46.69377" lon="0.48166">
        <ele>132</ele>
        <time>2022-07-11T09:01:38Z</time>
      </trkpt>
      <trkpt lat="46.6924" lon="0.47314">
        <ele>119</ele>
        <time>2022-07-11T09:09:52Z</time>
      </trkpt>
      <trkpt lat="46.69396" lon="0.47018">
        <ele>135</ele>
        <time>2022-07-11T09:12:56Z</time>
      </trkpt>
      <trkpt lat="46.69873" lon="0.46053">
        <ele>86.5</ele>
      </trkpt>
      <trkpt lat="46.69876" lon="0.46057">
        <ele>86.5</ele>
        <time>2022-07-11T09:23:18Z</time>
      </trkpt>
      <trkpt lat="46.69885" lon="0.4601">
        <ele>85.1</ele>
      </trkpt>
      <trkpt lat="46.69838" lon="0.45864">
        <ele>79.9</ele>
      </trkpt>
      <trkpt lat="46.6979" lon="0.45722">
        <ele>77</ele>
        <time>2022-07-11T09:27:27Z</time>
      </trkpt>
      <trkpt lat="46.69805" lon="0.45194">
        <ele>84</ele>
        <time>2022-07-11T09:37:49Z</time>
      </trkpt>
      <trkpt lat="46.69949" lon="0.4455">
        <ele>88.2</ele>
        <time>2022-07-11T09:40:48Z</time>
      </trkpt>
      <trkpt lat="46.70094" lon="0.44134">
        <ele>102.5</ele>
        <time>2022-07-11T09:42:23Z</time>
      </trkpt>
      <trkpt lat="46.70306" lon="0.44211">
        <ele>100</ele>
        <time>2022-07-11T09:45:28Z</time>
      </trkpt>
      <trkpt lat="46.70456" lon="0.44349">
        <ele>98.8</ele>
        <time>2022-07-11T09:46:56Z</time>
      </trkpt>
      <trkpt lat="46.707" lon="0.44344">
        <ele>97.2</ele>
        <time>2022-07-11T09:50:27Z</time>
      </trkpt>
      <trkpt lat="46.70809" lon="0.44417">
        <ele>98</ele>
        <time>2022-07-11T09:51:52Z</time>
      </trkpt>
      <trkpt lat="46.70862" lon="0.44469">
        <ele>98</ele>
        <time>2022-07-11T09:53:37Z</time>
      </trkpt>
      <trkpt lat="46.70718" lon="0.44628">
        <ele>91.8</ele>
        <time>2022-07-11T09:58:24Z</time>
      </trkpt>
      <trkpt lat="46.70779" lon="0.44787">
        <ele>79.3</ele>
        <time>2022-07-11T10:00:02Z</time>
      </trkpt>
      <trkpt lat="46.70907" lon="0.4501">
        <ele>76</ele>
        <time>2022-07-11T10:02:52Z</time>
      </trkpt>
      <trkpt lat="46.70783" lon="0.45265">
        <ele>73</ele>
        <time>2022-07-11T10:05:44Z</time>
      </trkpt>
      <trkpt lat="46.71698" lon="0.46093">
        <ele>62</ele>
        <time>2022-07-11T10:20:06Z</time>
      </trkpt>
      <trkpt lat="46.71921" lon="0.46333">
        <ele>70</ele>
        <time>2022-07-11T10:23:48Z</time>
      </trkpt>
      <trkpt lat="46.72139" lon="0.47083">
        <ele>91</ele>
        <time>2022-07-11T10:31:15Z</time>
      </trkpt>
      <trkpt lat="46.7227" lon="0.47256">
        <ele>90</ele>
        <time>2022-07-11T10:33:37Z</time>
      </trkpt>
      <trkpt lat="46.72335" lon="0.47298">
        <ele>89</ele>
        <time>2022-07-11T10:34:34Z</time>
      </trkpt>
      <trkpt lat="46.72502" lon="0.47561">
        <ele>88</ele>
        <time>2022-07-11T10:37:51Z</time>
      </trkpt>
      <trkpt lat="46.72549" lon="0.47684">
        <ele>90</ele>
        <time>2022-07-11T10:39:08Z</time>
      </trkpt>
      <trkpt lat="46.72874" lon="0.47945">
        <ele>89.5</ele>
      </trkpt>
      <trkpt lat="46.7313" lon="0.48174">
        <ele>88</ele>
        <time>2022-07-11T10:48:05Z</time>
      </trkpt>
      <trkpt lat="46.73356" lon="0.48667">
        <ele>74</ele>
        <time>2022-07-11T10:53:31Z</time>
      </trkpt>
      <trkpt lat="46.73399" lon="0.48656">
        <ele>76</ele>
        <time>2022-07-11T10:54:06Z</time>
      </trkpt>
      <trkpt lat="46.73459" lon="0.48567">
        <ele>73</ele>
        <time>2022-07-11T10:55:14Z</time>
      </trkpt>
      <trkpt lat="46.73485" lon="0.48472">
        <ele>67</ele>
        <time>2022-07-11T10:56:10Z</time>
      </trkpt>
      <trkpt lat="46.73516" lon="0.48425">
        <ele>62</ele>
        <time>2022-07-11T10:56:46Z</time>
      </trkpt>
      <trkpt lat="46.73585" lon="0.48453">
        <ele>66</ele>
        <time>2022-07-11T10:57:43Z</time>
      </trkpt>
      <trkpt lat="46.73664" lon="0.485">
        <ele>62</ele>
        <time>2022-07-11T10:58:52Z</time>
      </trkpt>
      <trkpt lat="46.7378" lon="0.48578">
        <ele>61</ele>
        <time>2022-07-11T11:00:34Z</time>
      </trkpt>
      <trkpt lat="46.73882" lon="0.48673">
        <ele>58</ele>
        <time>2022-07-11T11:02:11Z</time>
      </trkpt>
      <trkpt lat="46.73847" lon="0.48764">
        <ele>65</ele>
        <time>2022-07-11T11:03:08Z</time>
      </trkpt>
      <trkpt lat="46.73743" lon="0.48812">
        <ele>79</ele>
        <time>2022-07-11T11:04:35Z</time>
      </trkpt>
      <trkpt lat="46.73651" lon="0.48827">
        <ele>87</ele>
        <time>2022-07-11T11:05:50Z</time>
      </trkpt>
      <trkpt lat="46.73606" lon="0.48858">
        <ele>89</ele>
        <time>2022-07-11T11:06:29Z</time>
      </trkpt>
      <trkpt lat="46.73585" lon="0.48888">
        <ele>90</ele>
        <time>2022-07-11T11:06:53Z</time>
      </trkpt>
      <trkpt lat="46.73563" lon="0.4893">
        <ele>89</ele>
        <time>2022-07-11T11:07:22Z</time>
      </trkpt>
      <trkpt lat="46.73394" lon="0.49372">
        <ele>80</ele>
        <time>2022-07-11T11:12:00Z</time>
      </trkpt>
      <trkpt lat="46.73326" lon="0.49527">
        <ele>83</ele>
        <time>2022-07-11T11:13:41Z</time>
      </trkpt>
      <trkpt lat="46.73265" lon="0.49636">
        <ele>88</ele>
        <time>2022-07-11T11:14:58Z</time>
      </trkpt>
      <trkpt lat="46.73226" lon="0.49785">
        <ele>97</ele>
        <time>2022-07-11T11:16:25Z</time>
      </trkpt>
      <trkpt lat="46.73173" lon="0.49941">
        <ele>107</ele>
        <time>2022-07-11T11:18:01Z</time>
      </trkpt>
      <trkpt lat="46.73404" lon="0.50045">
        <ele>109</ele>
        <time>2022-07-11T11:21:15Z</time>
      </trkpt>
      <trkpt lat="46.73534" lon="0.50162">
        <ele>104</ele>
        <time>2022-07-11T11:23:17Z</time>
      </trkpt>
      <trkpt lat="46.73473" lon="0.50331">
        <ele>107</ele>
        <time>2022-07-11T11:25:02Z</time>
      </trkpt>
      <trkpt lat="46.7346" lon="0.50405">
        <ele>107</ele>
        <time>2022-07-11T11:25:44Z</time>
      </trkpt>
      <trkpt lat="46.7347" lon="0.50474">
        <ele>108</ele>
        <time>2022-07-11T11:26:22Z</time>
      </trkpt>
      <trkpt lat="46.73474" lon="0.50571">
        <ele>107</ele>
        <time>2022-07-11T11:27:16Z</time>
      </trkpt>
      <trkpt lat="46.73453" lon="0.50616">
        <ele>109</ele>
        <time>2022-07-11T11:27:46Z</time>
      </trkpt>
      <trkpt lat="46.73411" lon="0.50849">
        <ele>115</ele>
        <time>2022-07-11T11:29:58Z</time>
      </trkpt>
      <trkpt lat="46.73523" lon="0.5091">
        <ele>112</ele>
        <time>2022-07-11T11:31:33Z</time>
      </trkpt>
      <trkpt lat="46.73555" lon="0.50937">
        <ele>112</ele>
        <time>2022-07-11T11:32:03Z</time>
      </trkpt>
      <trkpt lat="46.73531" lon="0.51013">
        <ele>110</ele>
        <time>2022-07-11T11:32:49Z</time>
      </trkpt>
      <trkpt lat="46.73503" lon="0.51096">
        <ele>106</ele>
        <time>2022-07-11T11:33:40Z</time>
      </trkpt>
      <trkpt lat="46.73446" lon="0.51182">
        <ele>104</ele>
        <time>2022-07-11T11:34:45Z</time>
      </trkpt>
      <trkpt lat="46.7339" lon="0.5123">
        <ele>104</ele>
        <time>2022-07-11T11:35:37Z</time>
      </trkpt>
      <trkpt lat="46.73422" lon="0.51293">
        <ele>101</ele>
        <time>2022-07-11T11:36:20Z</time>
      </trkpt>
      <trkpt lat="46.73363" lon="0.51353">
        <ele>102</ele>
        <time>2022-07-11T11:37:18Z</time>
      </trkpt>
      <trkpt lat="46.73372" lon="0.51411">
        <ele>102</ele>
        <time>2022-07-11T11:37:51Z</time>
      </trkpt>
      <trkpt lat="46.73306" lon="0.51518">
        <ele>109</ele>
        <time>2022-07-11T11:39:10Z</time>
      </trkpt>
      <trkpt lat="46.73303" lon="0.51641">
        <ele>110</ele>
        <time>2022-07-11T11:40:17Z</time>
      </trkpt>
      <trkpt lat="46.73287" lon="0.5168">
        <ele>109</ele>
        <time>2022-07-11T11:40:42Z</time>
      </trkpt>
      <trkpt lat="46.7329" lon="0.51848">
        <ele>103</ele>
        <time>2022-07-11T11:42:14Z</time>
      </trkpt>
      <trkpt lat="46.73223" lon="0.5186">
        <ele>105</ele>
        <time>2022-07-11T11:43:08Z</time>
      </trkpt>
      <trkpt lat="46.73209" lon="0.51927">
        <ele>104</ele>
        <time>2022-07-11T11:43:47Z</time>
      </trkpt>
      <trkpt lat="46.73208" lon="0.52063">
        <ele>102</ele>
        <time>2022-07-11T11:45:01Z</time>
      </trkpt>
      <trkpt lat="46.73125" lon="0.52038">
        <ele>104</ele>
        <time>2022-07-11T11:46:09Z</time>
      </trkpt>
      <trkpt lat="46.7309" lon="0.51975">
        <ele>108</ele>
        <time>2022-07-11T11:46:54Z</time>
      </trkpt>
      <trkpt lat="46.72904" lon="0.51978">
        <ele>120</ele>
        <time>2022-07-11T11:49:23Z</time>
      </trkpt>
      <trkpt lat="46.72888" lon="0.52052">
        <ele>120</ele>
        <time>2022-07-11T11:50:05Z</time>
      </trkpt>
      <trkpt lat="46.72863" lon="0.52174">
        <ele>110</ele>
        <time>2022-07-11T11:51:15Z</time>
      </trkpt>
      <trkpt lat="46.72872" lon="0.52464">
        <ele>86</ele>
        <time>2022-07-11T11:53:55Z</time>
      </trkpt>
      <trkpt lat="46.72702" lon="0.52464">
        <ele>88</ele>
        <time>2022-07-11T11:56:11Z</time>
      </trkpt>
      <trkpt lat="46.72623" lon="0.52433">
        <ele>89</ele>
        <time>2022-07-11T11:57:16Z</time>
      </trkpt>
      <trkpt lat="46.72544" lon="0.52456">
        <ele>89</ele>
        <time>2022-07-11T11:58:21Z</time>
      </trkpt>
      <trkpt lat="46.72524" lon="0.52512">
        <ele>86</ele>
        <time>2022-07-11T11:58:55Z</time>
      </trkpt>
      <trkpt lat="46.72478" lon="0.5257">
        <ele>85</ele>
        <time>2022-07-11T11:59:44Z</time>
      </trkpt>
      <trkpt lat="46.72446" lon="0.52586">
        <ele>85</ele>
        <time>2022-07-11T12:00:11Z</time>
      </trkpt>
      <trkpt lat="46.72346" lon="0.52595">
        <ele>85</ele>
        <time>2022-07-11T12:01:31Z</time>
      </trkpt>
      <trkpt lat="46.72313" lon="0.52509">
        <ele>91</ele>
        <time>2022-07-11T12:02:25Z</time>
      </trkpt>
      <trkpt lat="46.72279" lon="0.52457">
        <ele>94</ele>
        <time>2022-07-11T12:03:05Z</time>
      </trkpt>
      <trkpt lat="46.72214" lon="0.5246">
        <ele>94</ele>
        <time>2022-07-11T12:03:57Z</time>
      </trkpt>
      <trkpt lat="46.72148" lon="0.52534">
        <ele>89</ele>
        <time>2022-07-11T12:05:04Z</time>
      </trkpt>
      <trkpt lat="46.72055" lon="0.52691">
        <ele>79</ele>
        <time>2022-07-11T12:06:57Z</time>
      </trkpt>
      <trkpt lat="46.72039" lon="0.52745">
        <ele>75</ele>
        <time>2022-07-11T12:07:30Z</time>
      </trkpt>
      <trkpt lat="46.71876" lon="0.52736">
        <ele>77</ele>
        <time>2022-07-11T12:09:40Z</time>
      </trkpt>
      <trkpt lat="46.71816" lon="0.52705">
        <ele>78</ele>
        <time>2022-07-11T12:10:31Z</time>
      </trkpt>
      <trkpt lat="46.71778" lon="0.52725">
        <ele>76</ele>
        <time>2022-07-11T12:11:04Z</time>
      </trkpt>
      <trkpt lat="46.71727" lon="0.52705">
        <ele>76</ele>
        <time>2022-07-11T12:11:46Z</time>
      </trkpt>
      <trkpt lat="46.71609" lon="0.52658">
        <ele>79</ele>
        <time>2022-07-11T12:13:24Z</time>
      </trkpt>
      <trkpt lat="46.71569" lon="0.52671">
        <ele>81</ele>
        <time>2022-07-11T12:13:57Z</time>
      </trkpt>
      <trkpt lat="46.71486" lon="0.52683">
        <ele>88</ele>
        <time>2022-07-11T12:15:04Z</time>
      </trkpt>
      <trkpt lat="46.71433" lon="0.52683">
        <ele>94</ele>
        <time>2022-07-11T12:15:46Z</time>
      </trkpt>
      <trkpt lat="46.71326" lon="0.52731">
        <ele>104</ele>
        <time>2022-07-11T12:17:16Z</time>
      </trkpt>
      <trkpt lat="46.71224" lon="0.52759">
        <ele>114</ele>
        <time>2022-07-11T12:18:39Z</time>
      </trkpt>
      <trkpt lat="46.71197" lon="0.5279">
        <ele>116</ele>
        <time>2022-07-11T12:19:06Z</time>
      </trkpt>
      <trkpt lat="46.71201" lon="0.5286">
        <ele>114</ele>
        <time>2022-07-11T12:19:45Z</time>
      </trkpt>
      <trkpt lat="46.71123" lon="0.52708">
        <ele>124</ele>
        <time>2022-07-11T12:21:29Z</time>
      </trkpt>
      <trkpt lat="46.71051" lon="0.52732">
        <ele>129</ele>
        <time>2022-07-11T12:22:28Z</time>
      </trkpt>
      <trkpt lat="46.70991" lon="0.52696">
        <ele>133</ele>
        <time>2022-07-11T12:23:20Z</time>
      </trkpt>
      <trkpt lat="46.70892" lon="0.52661">
        <ele>136</ele>
        <time>2022-07-11T12:24:42Z</time>
      </trkpt>
      <trkpt lat="46.70867" lon="0.52782">
        <ele>135</ele>
        <time>2022-07-11T12:25:51Z</time>
      </trkpt>
      <trkpt lat="46.70875" lon="0.5282">
        <ele>133</ele>
        <time>2022-07-11T12:26:13Z</time>
      </trkpt>
      <trkpt lat="46.70834" lon="0.52989">
        <ele>127</ele>
        <time>2022-07-11T12:27:51Z</time>
      </trkpt>
      <trkpt lat="46.70824" lon="0.53101">
        <ele>120</ele>
        <time>2022-07-11T12:28:53Z</time>
      </trkpt>
    </trkseg>
  </trk>
</gpx>